Time;durP1;ratioP1;P1;durP2;ratioP2;P2;SDS_P1;SDS_P2;PMS_P1;PMS_P2;Temp;Humidity;BMP_temperature;BMP_pressure;BME280_temperature;BME280_humidity;BME280_pressure;Samples;Min_cycle;Max_cycle;Signal;HPM_P1;HPM_P2
2022/04/26 03:36:38;;;;;;;32.28;16.45;;;7.80;99.90;;;;;;5026388;28;20045;-50
2022/04/26 03:39:05;;;;;;;22.25;15.60;;;7.70;99.90;;;;;;5045084;28;20151;-49
2022/04/26 03:41:32;;;;;;;22.35;16.55;;;7.70;99.90;;;;;;5036456;28;20508;-48
2022/04/26 03:43:59;;;;;;;21.42;16.88;;;7.70;99.90;;;;;;5027396;28;20053;-48
2022/04/26 03:46:26;;;;;;;27.42;16.08;;;7.70;99.90;;;;;;5041345;28;20793;-51
2022/04/26 03:48:52;;;;;;;23.00;16.65;;;7.60;99.90;;;;;;5045168;28;20056;-51
2022/04/26 03:51:19;;;;;;;20.13;15.40;;;7.60;99.90;;;;;;5045404;28;20131;-51
2022/04/26 03:53:47;;;;;;;22.98;15.68;;;7.50;99.90;;;;;;5043562;28;20048;-52
2022/04/26 03:56:13;;;;;;;20.88;15.60;;;7.50;99.90;;;;;;5044139;28;20041;-48
2022/04/26 03:58:39;;;;;;;23.17;16.20;;;7.50;99.90;;;;;;5044963;28;20048;-52
2022/04/26 04:01:06;;;;;;;21.45;14.98;;;7.50;99.90;;;;;;5027853;28;20183;-50
2022/04/26 04:03:35;;;;;;;21.73;14.65;;;7.40;99.90;;;;;;5027820;28;20064;-58
2022/04/26 04:06:01;;;;;;;20.48;14.90;;;7.30;99.90;;;;;;5047432;28;20040;-57
2022/04/26 04:08:27;;;;;;;22.42;14.95;;;7.40;99.90;;;;;;5041861;28;20133;-58
2022/04/26 04:10:53;;;;;;;24.73;15.57;;;7.40;99.90;;;;;;5028998;28;20143;-58
2022/04/26 04:13:20;;;;;;;23.17;15.07;;;7.40;99.90;;;;;;5042214;28;20081;-57
2022/04/26 04:15:49;;;;;;;20.27;14.90;;;7.40;99.90;;;;;;5047098;28;20540;-57
2022/04/26 04:21:00;;;;;;;20.35;14.77;;;7.40;99.90;;;;;;5044432;28;20458;-57
2022/04/26 04:23:27;;;;;;;20.55;14.52;;;7.40;99.90;;;;;;5040753;28;20045;-51
2022/04/26 04:25:53;;;;;;;20.40;14.73;;;7.40;99.90;;;;;;5045160;28;20063;-51
2022/04/26 04:28:19;;;;;;;18.08;13.60;;;7.50;99.90;;;;;;5061249;28;20428;-51
2022/04/26 04:30:46;;;;;;;17.27;14.30;;;7.50;99.90;;;;;;5040396;28;20492;-48
2022/04/26 04:33:12;;;;;;;23.52;15.50;;;7.50;99.90;;;;;;5044321;28;20126;-57
2022/04/26 04:35:38;;;;;;;25.40;14.25;;;7.50;99.90;;;;;;5042533;28;20767;-58
2022/04/26 04:38:04;;;;;;;23.50;13.93;;;7.50;99.90;;;;;;5026791;28;20060;-58
2022/04/26 04:40:30;;;;;;;23.20;13.77;;;7.60;99.90;;;;;;5027043;28;20049;-57
2022/04/26 04:42:56;;;;;;;22.45;14.27;;;7.60;99.90;;;;;;5032919;28;20041;-57
2022/04/26 04:45:22;;;;;;;21.73;13.38;;;7.50;99.90;;;;;;5043635;28;20057;-58
2022/04/26 04:47:48;;;;;;;18.88;13.65;;;7.60;99.90;;;;;;5044264;28;20605;-49
2022/04/26 04:50:14;;;;;;;20.15;13.52;;;7.60;99.90;;;;;;5043466;28;20491;-49
2022/04/26 04:52:41;;;;;;;21.88;13.68;;;7.60;99.90;;;;;;5026928;28;20037;-58
2022/04/26 04:55:07;;;;;;;22.58;12.88;;;7.60;99.90;;;;;;5040355;28;20055;-57
2022/04/26 04:57:33;;;;;;;23.35;13.18;;;7.70;99.90;;;;;;5045829;28;20251;-57
2022/04/26 05:00:00;;;;;;;21.52;13.05;;;7.70;99.90;;;;;;5045162;28;20567;-57
2022/04/26 05:02:28;;;;;;;21.58;12.90;;;7.70;99.90;;;;;;5023837;28;20763;-58
2022/04/26 05:04:54;;;;;;;18.10;12.70;;;7.70;99.90;;;;;;5014154;28;20051;-57
2022/04/26 05:07:20;;;;;;;17.80;12.75;;;7.70;99.90;;;;;;5009254;28;20061;-58
2022/04/26 05:09:46;;;;;;;26.67;12.70;;;7.70;99.90;;;;;;5026143;28;20063;-58
2022/04/26 05:12:12;;;;;;;22.77;12.00;;;7.70;99.90;;;;;;5026541;28;20085;-58
2022/04/26 05:14:38;;;;;;;17.63;11.95;;;7.70;99.90;;;;;;5043688;28;20052;-58
2022/04/26 05:17:04;;;;;;;25.95;13.27;;;7.70;99.90;;;;;;5037037;28;20049;-55
2022/04/26 05:19:31;;;;;;;17.70;11.85;;;7.70;99.90;;;;;;5024229;28;20141;-48
2022/04/26 05:21:57;;;;;;;20.02;12.65;;;7.80;99.90;;;;;;5039577;28;20083;-49
2022/04/26 05:27:07;;;;;;;18.10;11.38;;;7.80;99.90;;;;;;5023601;28;21188;-57
2022/04/26 05:29:33;;;;;;;18.95;11.48;;;7.80;99.90;;;;;;5045248;28;20132;-58
2022/04/26 05:31:59;;;;;;;22.48;11.20;;;7.90;99.90;;;;;;5022234;28;20041;-58
2022/04/26 05:34:25;;;;;;;16.02;10.18;;;7.90;99.90;;;;;;5043680;28;20056;-58
2022/04/26 05:36:51;;;;;;;16.73;10.63;;;7.90;99.90;;;;;;5044962;28;20098;-58
2022/04/26 05:39:17;;;;;;;19.17;10.95;;;7.90;99.90;;;;;;5043510;28;20528;-58
2022/04/26 05:41:43;;;;;;;16.52;10.05;;;7.90;99.90;;;;;;5044900;28;20053;-52
2022/04/26 05:44:09;;;;;;;18.50;9.50;;;7.90;99.90;;;;;;5040437;28;20052;-57
2022/04/26 05:46:36;;;;;;;17.15;10.07;;;7.90;99.90;;;;;;5036126;28;20044;-58
2022/04/26 05:49:02;;;;;;;18.35;10.00;;;7.90;99.90;;;;;;5042838;28;20081;-52
2022/04/26 05:51:28;;;;;;;18.17;9.90;;;8.00;99.90;;;;;;5043351;28;20782;-47
2022/04/26 05:53:54;;;;;;;15.88;8.70;;;8.00;99.90;;;;;;5039296;28;20049;-50
2022/04/26 05:56:20;;;;;;;15.52;9.07;;;8.00;99.90;;;;;;5043791;28;20048;-58
2022/04/26 05:58:46;;;;;;;14.23;9.63;;;8.00;99.90;;;;;;5043261;28;20045;-58
2022/04/26 06:01:12;;;;;;;17.73;9.40;;;8.00;99.90;;;;;;5044202;28;20151;-58
2022/04/26 06:03:38;;;;;;;13.68;8.65;;;8.00;99.90;;;;;;5039145;28;20851;-51
2022/04/26 06:06:04;;;;;;;18.13;8.60;;;8.00;99.90;;;;;;5033294;28;20114;-52
2022/04/26 06:08:31;;;;;;;20.60;8.38;;;8.00;99.90;;;;;;5038203;28;20059;-50
2022/04/26 06:10:57;;;;;;;14.73;8.93;;;8.00;99.90;;;;;;5032831;28;20179;-58
2022/04/26 06:13:23;;;;;;;16.42;8.38;;;8.00;99.90;;;;;;5040974;28;20049;-58
2022/04/26 06:15:49;;;;;;;15.57;8.32;;;7.90;99.90;;;;;;5014771;28;20060;-51
2022/04/26 06:18:15;;;;;;;18.13;8.13;;;8.00;99.90;;;;;;5037640;28;20128;-55
2022/04/26 06:20:41;;;;;;;13.55;7.80;;;8.00;99.90;;;;;;5056187;28;20045;-53
2022/04/26 06:23:07;;;;;;;23.63;17.27;;;8.10;99.90;;;;;;5043891;28;20049;-48
2022/04/26 06:25:36;;;;;;;17.45;9.52;;;8.10;99.90;;;;;;5044395;28;20080;-51
2022/04/26 06:28:05;;;;;;;15.63;8.80;;;8.10;99.90;;;;;;5031496;28;20130;-50
2022/04/26 06:30:32;;;;;;;18.95;9.02;;;8.20;99.90;;;;;;5025972;28;20049;-50
2022/04/26 06:32:58;;;;;;;14.00;9.00;;;8.30;99.90;;;;;;5044132;28;20072;-48
2022/04/26 06:35:24;;;;;;;16.50;9.68;;;8.40;99.90;;;;;;5020089;28;20041;-52
2022/04/26 06:37:50;;;;;;;16.80;7.35;;;8.50;99.90;;;;;;5035013;28;20057;-52
2022/04/26 06:40:16;;;;;;;24.17;15.45;;;8.60;99.90;;;;;;5041157;28;20103;-58
2022/04/26 06:42:42;;;;;;;21.50;9.40;;;8.70;99.90;;;;;;5038578;28;20576;-54
2022/04/26 06:45:09;;;;;;;18.75;12.07;;;8.70;99.90;;;;;;5032764;28;20825;-50
2022/04/26 06:47:35;;;;;;;18.85;11.07;;;8.90;99.90;;;;;;5039093;28;20045;-51
2022/04/26 06:50:03;;;;;;;16.00;8.18;;;9.10;99.90;;;;;;5042835;28;20098;-53
2022/04/26 06:52:31;;;;;;;20.30;10.80;;;9.50;99.90;;;;;;5039380;28;20044;-50
2022/04/26 06:54:57;;;;;;;15.70;8.70;;;9.70;99.90;;;;;;5027831;28;20092;-53
2022/04/26 06:57:23;;;;;;;17.95;11.07;;;10.10;99.90;;;;;;5028712;28;20095;-51
2022/04/26 06:59:49;;;;;;;14.68;5.50;;;10.40;99.90;;;;;;5043063;28;20044;-50
2022/04/26 07:02:15;;;;;;;13.63;6.22;;;10.70;99.90;;;;;;5042742;28;20369;-54
2022/04/26 07:04:41;;;;;;;18.73;9.68;;;10.70;99.90;;;;;;5041820;28;20263;-50
2022/04/26 07:07:07;;;;;;;10.40;5.43;;;10.60;99.90;;;;;;5024363;28;20779;-52
2022/04/26 07:09:33;;;;;;;16.98;8.35;;;10.60;99.90;;;;;;5022993;28;20413;-49
2022/04/26 07:11:59;;;;;;;15.45;8.70;;;10.80;99.90;;;;;;5042738;28;20048;-53
2022/04/26 07:14:25;;;;;;;16.88;6.57;;;10.80;99.90;;;;;;5042035;28;20053;-51
2022/04/26 07:16:52;;;;;;;18.00;12.15;;;10.70;99.90;;;;;;5024449;28;20106;-51
2022/04/26 07:19:18;;;;;;;17.15;10.45;;;10.70;99.90;;;;;;5025240;28;20073;-49
2022/04/26 07:21:47;;;;;;;18.02;7.43;;;10.60;99.90;;;;;;5041991;28;20500;-49
2022/04/26 07:24:14;;;;;;;13.30;7.22;;;10.60;99.90;;;;;;5026098;28;20052;-52
2022/04/26 07:26:41;;;;;;;11.52;8.38;;;10.50;99.90;;;;;;5041229;28;20049;-50
2022/04/26 07:29:08;;;;;;;10.80;5.90;;;10.40;99.90;;;;;;5039415;28;20575;-49
2022/04/26 07:31:36;;;;;;;17.25;8.93;;;10.40;99.90;;;;;;5042915;28;20841;-52
2022/04/26 07:34:20;;;;;;;12.68;7.15;;;10.30;99.90;;;;;;5012618;28;20053;-50
2022/04/26 07:37:01;;;;;;;12.30;5.20;;;10.20;99.90;;;;;;5041847;28;20114;-54
2022/04/26 07:39:29;;;;;;;22.03;16.03;;;10.40;99.90;;;;;;5044699;28;20199;-52
2022/04/26 07:41:56;;;;;;;11.88;5.20;;;10.40;99.90;;;;;;5019429;28;20048;-50
2022/04/26 07:44:22;;;;;;;15.80;9.15;;;10.40;99.90;;;;;;5046318;28;20683;-50
2022/04/26 07:46:49;;;;;;;14.52;5.60;;;10.50;99.90;;;;;;5047005;28;20164;-52
2022/04/26 07:49:19;;;;;;;8.98;5.13;;;10.60;99.90;;;;;;5044920;28;20059;-51
2022/04/26 07:51:45;;;;;;;15.40;7.00;;;10.80;99.90;;;;;;5044635;28;20076;-51
2022/04/26 07:54:11;;;;;;;11.57;5.15;;;11.00;99.90;;;;;;5046811;28;20102;-49
2022/04/26 07:56:37;;;;;;;11.98;4.85;;;11.10;99.90;;;;;;5027234;28;20122;-53
2022/04/26 07:59:04;;;;;;;15.88;10.98;;;11.10;99.90;;;;;;5042840;28;20064;-52
2022/04/26 08:01:31;;;;;;;14.13;10.32;;;11.10;99.90;;;;;;5044714;28;20484;-52
2022/04/26 08:03:58;;;;;;;23.70;8.23;;;11.10;99.90;;;;;;5044570;28;20088;-50
2022/04/26 08:06:24;;;;;;;14.10;7.45;;;11.00;99.90;;;;;;5046971;28;20120;-50
2022/04/26 08:08:50;;;;;;;8.85;4.72;;;11.10;99.90;;;;;;5045827;28;20578;-53
2022/04/26 08:11:16;;;;;;;13.93;7.82;;;11.10;99.90;;;;;;5040584;28;20120;-50
2022/04/26 08:13:43;;;;;;;11.48;7.15;;;11.10;99.90;;;;;;5044234;28;20048;-58
2022/04/26 08:16:10;;;;;;;15.48;8.38;;;11.10;99.90;;;;;;5061757;28;20095;-58
2022/04/26 08:18:37;;;;;;;12.43;8.65;;;11.30;99.90;;;;;;5044456;28;20056;-58
2022/04/26 08:21:06;;;;;;;9.63;3.90;;;11.30;99.90;;;;;;5035721;28;20049;-58
2022/04/26 08:23:34;;;;;;;11.57;5.00;;;11.50;99.90;;;;;;5019722;28;20048;-57
2022/04/26 08:28:45;;;;;;;11.02;5.63;;;11.90;99.90;;;;;;5045414;28;20056;-57
2022/04/26 08:31:14;;;;;;;8.20;5.10;;;12.10;99.90;;;;;;5045399;28;20472;-56
2022/04/26 08:33:41;;;;;;;12.30;6.28;;;12.00;99.90;;;;;;5043537;28;20433;-57
2022/04/26 08:36:07;;;;;;;13.30;6.32;;;12.10;99.90;;;;;;5043900;28;20403;-56
2022/04/26 08:38:33;;;;;;;9.57;3.97;;;12.00;99.90;;;;;;5028768;28;20076;-57
2022/04/26 08:40:59;;;;;;;8.80;3.65;;;11.80;99.90;;;;;;5036150;28;20132;-56
2022/04/26 08:43:33;;;;;;;11.60;5.28;;;11.60;99.90;;;;;;5043421;28;20114;-56
2022/04/26 08:45:59;;;;;;;7.25;3.35;;;11.70;99.90;;;;;;5045084;28;20049;-57
2022/04/26 08:51:12;;;;;;;8.10;3.47;;;11.90;99.90;;;;;;5042485;28;20055;-56
2022/04/26 08:53:39;;;;;;;10.57;5.13;;;12.20;99.90;;;;;;5037415;28;20858;-56
2022/04/26 08:56:06;;;;;;;10.50;5.53;;;12.50;99.90;;;;;;5026096;28;20049;-56
2022/04/26 08:58:34;;;;;;;9.93;3.17;;;12.60;99.90;;;;;;5045413;28;20082;-56
2022/04/26 09:01:04;;;;;;;7.97;3.42;;;13.10;99.90;;;;;;5043572;28;20567;-57
2022/04/26 09:03:32;;;;;;;8.40;3.90;;;14.00;99.90;;;;;;5024875;28;20056;-56
2022/04/26 09:06:17;;;;;;;11.55;5.93;;;14.60;99.90;;;;;;5026388;28;20057;-57
2022/04/26 09:08:44;;;;;;;9.15;3.97;;;14.80;99.90;;;;;;5042112;28;20057;-55
2022/04/26 09:11:27;;;;;;;10.75;4.38;;;14.40;99.90;;;;;;5010058;28;20068;-52
2022/04/26 09:13:54;;;;;;;11.52;6.15;;;14.80;99.90;;;;;;5013317;28;20911;-55
2022/04/26 09:16:22;;;;;;;6.22;4.00;;;15.40;99.90;;;;;;5042682;28;20404;-56
2022/04/26 09:18:58;;;;;;;10.45;6.05;;;15.70;99.90;;;;;;5043159;28;20056;-55
2022/04/26 09:21:27;;;;;;;9.38;6.45;;;16.20;99.90;;;;;;5038840;28;20084;-56
2022/04/26 09:24:06;;;;;;;12.30;7.88;;;15.80;99.90;;;;;;5028595;28;20545;-56
2022/04/26 09:26:38;;;;;;;12.98;8.52;;;16.40;99.90;;;;;;5025008;28;20053;-55
2022/04/26 09:29:08;;;;;;;;;;;16.80;99.90;;;;;;5014288;28;20068;-56
2022/04/26 09:31:37;;;;;;;10.63;6.82;;;16.60;98.70;;;;;;5045082;28;19963;-56
2022/04/26 09:34:14;;;;;;;8.95;4.65;;;16.90;95.60;;;;;;5042369;28;20827;-56
2022/04/26 09:36:50;;;;;;;10.27;3.95;;;17.20;77.80;;;;;;5044709;28;20123;-56
2022/04/26 09:39:18;;;;;;;10.57;6.13;;;17.60;72.10;;;;;;5041910;28;20579;-56
2022/04/26 09:41:51;;;;;;;7.75;4.45;;;17.90;68.20;;;;;;5044039;28;20142;-52
2022/04/26 09:44:30;;;;;;;10.15;5.45;;;18.30;62.30;;;;;;5043760;28;20183;-54
2022/04/26 09:46:56;;;;;;;12.57;6.60;;;18.90;60.60;;;;;;5044157;28;20091;-54
2022/04/26 09:49:24;;;;;;;10.27;6.65;;;19.30;64.40;;;;;;5044440;28;20052;-54
2022/04/26 09:51:54;;;;;;;7.72;4.32;;;19.20;61.40;;;;;;5041345;28;20047;-56
2022/04/26 09:54:21;;;;;;;8.55;4.68;;;19.20;60.30;;;;;;5042341;28;20693;-56
2022/04/26 09:56:48;;;;;;;7.50;2.80;;;19.10;58.50;;;;;;5009675;28;20111;-55
2022/04/26 09:59:23;;;;;;;8.07;4.65;;;18.70;60.00;;;;;;5041440;28;20053;-55
2022/04/26 10:01:53;;;;;;;7.45;3.10;;;18.40;57.90;;;;;;5014102;28;20049;-56
2022/04/26 10:04:22;;;;;;;7.15;2.72;;;18.40;59.40;;;;;;5009232;28;20772;-56
2022/04/26 10:07:00;;;;;;;4.93;2.60;;;17.50;55.30;;;;;;5008418;28;20081;-54
2022/04/26 10:09:27;;;;;;;6.18;3.10;;;16.70;56.90;;;;;;5022559;28;20053;-56
2022/04/26 10:11:58;;;;;;;8.82;4.97;;;16.40;61.00;;;;;;5031774;28;20049;-57
2022/04/26 10:14:25;;;;;;;16.10;12.02;;;16.20;62.00;;;;;;5042006;28;20088;-57
2022/04/26 10:16:51;;;;;;;8.15;5.18;;;17.20;62.10;;;;;;5025576;28;20045;-57
2022/04/26 10:19:17;;;;;;;6.97;4.47;;;17.70;61.10;;;;;;5041991;28;20069;-55
2022/04/26 10:21:46;;;;;;;8.57;4.32;;;18.60;59.60;;;;;;5043728;28;20048;-55
2022/04/26 10:24:23;;;;;;;10.07;6.18;;;19.10;55.60;;;;;;5034944;28;20583;-58
2022/04/26 10:26:51;;;;;;;5.95;3.58;;;19.70;52.10;;;;;;5024079;28;20052;-54
2022/04/26 10:29:26;;;;;;;10.10;4.47;;;19.80;52.90;;;;;;5032402;28;20083;-57
2022/04/26 10:31:55;;;;;;;11.40;5.88;;;20.00;49.40;;;;;;5034510;28;20128;-57
2022/04/26 10:34:23;;;;;;;6.10;3.20;;;19.60;51.70;;;;;;5040073;28;20053;-56
2022/04/26 10:36:55;;;;;;;10.30;6.95;;;18.90;52.00;;;;;;5025099;28;20073;-56
2022/04/26 10:39:31;;;;;;;;;;;19.20;51.50;;;;;;5025961;28;20053;-57
2022/04/26 10:41:59;;;;;;;5.78;4.07;;;19.00;50.50;;;;;;5035276;28;19975;-56
2022/04/26 10:44:31;;;;;;;6.07;4.45;;;18.40;51.10;;;;;;5040139;28;20084;-54
2022/04/26 10:47:03;;;;;;;9.50;5.05;;;18.90;52.10;;;;;;5044258;28;20079;-54
2022/04/26 10:49:32;;;;;;;12.45;9.07;;;19.50;50.70;;;;;;5030577;28;20041;-54
2022/04/26 10:52:14;;;;;;;4.47;3.08;;;20.30;51.40;;;;;;5038520;28;20053;-51
2022/04/26 10:54:51;;;;;;;6.18;3.00;;;19.40;46.50;;;;;;5039273;28;20051;-52
2022/04/26 10:57:19;;;;;;;8.93;2.80;;;18.90;49.80;;;;;;5042193;28;20053;-55
2022/04/26 10:59:52;;;;;;;6.90;3.00;;;18.50;50.30;;;;;;5031821;28;20297;-52
2022/04/26 11:02:19;;;;;;;7.20;3.17;;;19.20;50.10;;;;;;5024211;28;20043;-54
2022/04/26 11:04:46;;;;;;;10.52;5.60;;;19.20;50.00;;;;;;5024067;28;20829;-53
2022/04/26 11:07:18;;;;;;;5.13;3.10;;;19.10;49.00;;;;;;5024829;28;20053;-50
2022/04/26 11:09:49;;;;;;;7.88;3.33;;;18.10;47.70;;;;;;5027621;28;20410;-53
2022/04/26 11:12:19;;;;;;;8.93;5.50;;;17.90;49.70;;;;;;5028182;28;20041;-53
2022/04/26 11:14:47;;;;;;;4.97;3.78;;;18.70;50.80;;;;;;5027662;28;20741;-57
2022/04/26 11:17:18;;;;;;;5.03;2.60;;;19.50;49.60;;;;;;5026398;28;20190;-57
2022/04/26 11:19:51;;;;;;;8.77;5.35;;;20.40;48.70;;;;;;5028661;28;20195;-57
2022/04/26 11:22:18;;;;;;;11.38;8.18;;;20.90;46.90;;;;;;5047774;28;20925;-55
2022/04/26 11:30:29;;;;;;;6.65;4.20;;;20.20;46.30;;;;;;5045757;28;20045;-48
2022/04/26 11:32:57;;;;;;;7.00;4.63;;;20.80;45.60;;;;;;5047552;28;20124;-48
2022/04/26 11:35:23;;;;;;;6.05;3.00;;;21.00;45.90;;;;;;5046267;28;20049;-52
2022/04/26 11:37:54;;;;;;;8.98;4.75;;;21.00;45.00;;;;;;5029146;28;20045;-50
2022/04/26 11:40:26;;;;;;;4.32;2.25;;;21.50;44.20;;;;;;5047769;28;20048;-53
2022/04/26 11:42:53;;;;;;;6.15;2.70;;;21.90;43.50;;;;;;5045335;28;20052;-53
2022/04/26 11:45:21;;;;;;;6.90;4.25;;;21.40;42.30;;;;;;5047615;28;20392;-53
2022/04/26 11:47:50;;;;;;;4.60;2.22;;;21.80;42.30;;;;;;5012574;28;20040;-52
2022/04/26 11:50:34;;;;;;;6.00;2.50;;;21.60;43.00;;;;;;5046795;28;20567;-53
2022/04/26 11:53:12;;;;;;;9.18;4.60;;;20.10;41.70;;;;;;5034895;28;20051;-51
2022/04/26 11:56:01;;;;;;;7.28;3.92;;;20.10;43.60;;;;;;5025543;28;20049;-53
2022/04/26 11:58:27;;;;;;;6.25;3.22;;;19.10;44.20;;;;;;5026646;28;20176;-51
2022/04/26 12:01:04;;;;;;;5.57;2.90;;;19.30;45.60;;;;;;5026954;28;20817;-56
2022/04/26 12:03:38;;;;;;;7.00;3.90;;;19.80;44.70;;;;;;5010142;28;20124;-56
2022/04/26 12:06:05;;;;;;;6.68;2.75;;;20.20;42.50;;;;;;5025541;28;20810;-56
2022/04/26 12:08:44;;;;;;;6.88;3.65;;;20.60;43.60;;;;;;5026191;28;20058;-56
2022/04/26 12:11:32;;;;;;;6.35;2.25;;;21.00;42.20;;;;;;5024845;28;20099;-56
2022/04/26 12:13:59;;;;;;;6.50;3.05;;;20.80;42.30;;;;;;4994225;28;20045;-56
2022/04/26 12:16:26;;;;;;;6.40;3.08;;;20.10;43.20;;;;;;5027120;28;20152;-56
2022/04/26 12:19:00;;;;;;;5.60;3.20;;;20.80;43.00;;;;;;5024833;28;20116;-56
2022/04/26 12:21:27;;;;;;;8.18;3.60;;;21.00;43.00;;;;;;5026800;28;20064;-56
2022/04/26 12:24:16;;;;;;;5.40;2.42;;;19.90;42.30;;;;;;5026167;28;20049;-56
2022/04/26 12:27:00;;;;;;;5.53;2.00;;;19.80;42.70;;;;;;5024516;28;20061;-50
2022/04/26 12:29:28;;;;;;;5.43;2.58;;;20.50;40.40;;;;;;4991707;28;20049;-52
2022/04/26 12:31:56;;;;;;;4.38;2.08;;;20.30;39.90;;;;;;5041584;28;20060;-57
2022/04/26 12:34:29;;;;;;;8.65;4.00;;;20.80;40.10;;;;;;5015404;28;20076;-56
2022/04/26 12:37:09;;;;;;;7.90;3.15;;;20.60;39.50;;;;;;5046918;28;20056;-56
2022/04/26 12:39:44;;;;;;;5.82;2.28;;;21.90;40.10;;;;;;5028204;28;20052;-56
2022/04/26 12:42:14;;;;;;;6.97;3.00;;;22.10;38.80;;;;;;5044661;28;20790;-56
2022/04/26 12:44:50;;;;;;;5.40;2.00;;;22.20;38.10;;;;;;5041310;28;20056;-56
2022/04/26 12:50:28;;;;;;;5.00;2.45;;;23.10;38.40;;;;;;4942285;28;20063;-53
2022/04/26 12:53:24;;;;;;;5.60;2.00;;;22.40;39.00;;;;;;5008295;28;20520;-56
2022/04/26 12:55:53;;;;;;;3.78;2.05;;;23.00;37.50;;;;;;5017557;28;20053;-56
2022/04/26 12:58:35;;;;;;;6.00;2.40;;;23.10;38.10;;;;;;5025757;28;20390;-56
2022/04/26 13:01:02;;;;;;;5.97;2.45;;;22.70;37.40;;;;;;5025589;28;20531;-52
2022/04/26 13:03:28;;;;;;;5.00;3.10;;;21.40;38.20;;;;;;5025710;28;20080;-51
2022/04/26 13:06:12;;;;;;;4.75;2.63;;;20.70;38.60;;;;;;5026000;28;20077;-47
2022/04/26 13:08:42;;;;;;;6.82;2.20;;;21.20;39.60;;;;;;5007910;28;20045;-52
2022/04/26 13:11:09;;;;;;;6.55;2.20;;;21.90;39.00;;;;;;5024931;28;20060;-47
2022/04/26 13:13:39;;;;;;;7.30;2.20;;;22.20;37.30;;;;;;5026165;28;20477;-52
2022/04/26 13:16:05;;;;;;;5.60;2.75;;;22.40;38.10;;;;;;5009326;28;20053;-51
2022/04/26 13:18:32;;;;;;;5.63;2.45;;;22.80;38.20;;;;;;5045010;28;20551;-50
2022/04/26 13:20:58;;;;;;;4.25;1.92;;;22.70;37.20;;;;;;5045192;28;20048;-51
2022/04/26 13:23:26;;;;;;;5.95;2.67;;;23.10;36.60;;;;;;5027591;28;20059;-50
2022/04/26 13:25:53;;;;;;;4.63;2.30;;;23.00;37.00;;;;;;5028025;28;20817;-49
2022/04/26 13:28:19;;;;;;;3.70;2.22;;;22.50;36.90;;;;;;5027535;28;20056;-56
2022/04/26 13:30:45;;;;;;;4.55;2.35;;;22.40;37.60;;;;;;5024496;28;20053;-56
2022/04/26 13:33:12;;;;;;;4.68;2.05;;;22.70;36.80;;;;;;5024058;28;20057;-56
2022/04/26 13:35:38;;;;;;;7.70;2.78;;;21.40;36.00;;;;;;5025665;28;20049;-57
2022/04/26 13:38:13;;;;;;;4.70;2.13;;;22.10;37.10;;;;;;4998348;28;20045;-56
2022/04/26 13:40:40;;;;;;;6.20;2.55;;;22.90;36.00;;;;;;5025366;28;20053;-56
2022/04/26 13:43:08;;;;;;;4.38;2.30;;;22.90;36.30;;;;;;5024953;28;20080;-56
2022/04/26 13:45:35;;;;;;;5.07;2.20;;;22.90;36.00;;;;;;5024759;28;20065;-57
2022/04/26 13:48:08;;;;;;;3.95;2.00;;;23.60;35.90;;;;;;5024628;28;20064;-56
2022/04/26 13:50:35;;;;;;;4.30;2.33;;;23.70;34.60;;;;;;5024965;28;20049;-56
2022/04/26 13:53:01;;;;;;;3.72;1.92;;;22.80;34.00;;;;;;4990917;28;20045;-57
2022/04/26 13:55:27;;;;;;;6.28;2.38;;;21.10;35.50;;;;;;5023141;28;20091;-56
2022/04/26 13:57:54;;;;;;;5.32;2.63;;;21.20;37.80;;;;;;5023317;28;20049;-56
2022/04/26 14:00:21;;;;;;;6.75;2.40;;;21.30;37.10;;;;;;5042276;28;20045;-50
2022/04/26 14:02:48;;;;;;;5.47;2.25;;;21.00;38.00;;;;;;5043200;28;20037;-53
2022/04/26 14:05:20;;;;;;;4.38;2.50;;;21.60;37.00;;;;;;5044599;28;20053;-52
2022/04/26 14:07:46;;;;;;;4.93;2.20;;;22.70;36.60;;;;;;5044333;28;20048;-53
2022/04/26 14:10:14;;;;;;;5.75;1.83;;;22.70;36.30;;;;;;5043643;28;20486;-51
2022/04/26 14:12:40;;;;;;;7.88;2.58;;;22.70;36.90;;;;;;5026675;28;20068;-52
2022/04/26 14:23:27;;;;;;;4.40;2.03;;;23.20;35.90;;;;;;5024899;28;20071;-53
2022/04/26 14:25:53;;;;;;;5.97;2.47;;;23.30;35.40;;;;;;4990644;28;20117;-52
2022/04/26 14:28:19;;;;;;;3.83;1.77;;;22.70;35.20;;;;;;5024459;28;20053;-52
2022/04/26 14:30:46;;;;;;;3.40;1.95;;;22.60;35.20;;;;;;5023543;28;20125;-52
2022/04/26 14:33:13;;;;;;;5.82;2.50;;;22.80;35.70;;;;;;5023127;28;20068;-53
2022/04/26 14:35:39;;;;;;;4.32;2.25;;;23.10;36.40;;;;;;5024496;28;20478;-54
2022/04/26 14:38:06;;;;;;;5.03;2.53;;;22.90;35.60;;;;;;5024512;28;20143;-56
2022/04/26 14:40:33;;;;;;;3.60;1.90;;;22.90;35.60;;;;;;5011075;28;20056;-57
2022/04/26 14:42:59;;;;;;;5.97;2.13;;;23.50;36.00;;;;;;5047494;28;20404;-57
2022/04/26 14:45:25;;;;;;;4.22;2.13;;;23.30;35.40;;;;;;5046755;28;20041;-57
2022/04/26 14:47:51;;;;;;;6.28;2.20;;;23.30;35.20;;;;;;5046517;28;20053;-56
2022/04/26 14:50:18;;;;;;;4.43;2.20;;;23.00;35.60;;;;;;5030175;28;20045;-57
2022/04/26 14:52:44;;;;;;;6.25;2.03;;;23.30;35.90;;;;;;5011482;28;20045;-57
2022/04/26 14:55:10;;;;;;;5.95;2.28;;;22.20;36.40;;;;;;5043517;28;20052;-56
2022/04/26 14:57:37;;;;;;;6.35;2.20;;;21.20;37.50;;;;;;5027256;28;20053;-48
2022/04/26 15:00:06;;;;;;;7.32;2.90;;;20.40;38.80;;;;;;5027982;28;20053;-53
2022/04/26 15:02:36;;;;;;;3.72;1.88;;;19.80;39.50;;;;;;4990834;28;20060;-52
2022/04/26 15:05:02;;;;;;;4.33;2.17;;;19.90;40.50;;;;;;5048008;28;20057;-51
2022/04/26 15:09:42;;;;;;;5.55;2.00;;;19.30;40.80;;;;;;5047816;28;20083;-48
2022/04/26 15:10:14;;;;;;;8.05;2.80;;;18.60;41.90;;;;;;5048075;28;20472;-51
2022/04/26 15:18:09;;;;;;;6.18;2.88;;;17.80;45.00;;;;;;5012167;28;20069;-52
2022/04/26 15:20:36;;;;;;;4.95;2.67;;;17.80;44.50;;;;;;4994117;28;20052;-52
2022/04/26 15:23:04;;;;;;;6.20;2.80;;;17.20;45.10;;;;;;5026625;28;20136;-48
2022/04/26 15:25:32;;;;;;;5.22;2.60;;;17.00;45.40;;;;;;5026307;28;20053;-52
2022/04/26 15:27:58;;;;;;;6.10;2.90;;;17.20;46.70;;;;;;5027132;28;20048;-52
2022/04/26 15:30:24;;;;;;;5.75;2.67;;;17.20;47.30;;;;;;4993792;28;20046;-51
2022/04/26 15:32:50;;;;;;;6.53;2.80;;;17.10;47.80;;;;;;5010181;28;20146;-50
2022/04/26 15:35:16;;;;;;;6.07;2.97;;;17.20;47.80;;;;;;5028284;28;20147;-49
2022/04/26 15:37:43;;;;;;;7.93;2.72;;;17.50;47.50;;;;;;5027206;28;20046;-53
2022/04/26 15:40:11;;;;;;;5.18;2.50;;;17.70;47.70;;;;;;4993311;28;20087;-52
2022/04/26 15:42:37;;;;;;;4.85;2.40;;;17.60;47.20;;;;;;5027717;28;20536;-51
2022/04/26 15:45:04;;;;;;;4.63;2.72;;;17.50;46.90;;;;;;5042665;28;20053;-52
2022/04/26 15:47:30;;;;;;;6.07;2.88;;;17.10;47.70;;;;;;5045661;28;20048;-52
2022/04/26 15:49:56;;;;;;;8.95;3.65;;;17.00;48.60;;;;;;5045326;28;20895;-52
2022/04/26 15:52:23;;;;;;;5.57;2.65;;;16.80;48.40;;;;;;5045115;28;20133;-50
2022/04/26 15:54:49;;;;;;;6.60;2.83;;;16.60;49.00;;;;;;5037033;28;20061;-50
2022/04/26 15:57:15;;;;;;;5.13;2.83;;;16.40;48.90;;;;;;5009238;28;20115;-56
2022/04/26 15:59:41;;;;;;;6.07;2.80;;;16.30;49.20;;;;;;5027091;28;20139;-56
2022/04/26 16:02:08;;;;;;;5.28;2.60;;;16.20;49.60;;;;;;5025776;28;20386;-56
2022/04/26 16:04:35;;;;;;;6.25;2.60;;;16.00;50.80;;;;;;5030901;28;20040;-56
2022/04/26 16:07:01;;;;;;;5.57;2.53;;;16.10;50.60;;;;;;5046711;28;20080;-56
2022/04/26 16:20:32;;;;;;;6.55;3.05;;;15.50;52.60;;;;;;5026640;28;20496;-50
2022/04/26 16:23:05;;;;;;;6.85;2.50;;;15.20;52.30;;;;;;5009675;28;20827;-51
2022/04/26 16:25:31;;;;;;;4.78;2.33;;;15.30;53.30;;;;;;5026064;28;20082;-50
2022/04/26 16:28:00;;;;;;;4.50;2.70;;;15.20;52.70;;;;;;5026296;28;20049;-51
2022/04/26 16:30:29;;;;;;;5.38;3.08;;;15.00;53.60;;;;;;5024561;28;20049;-54
2022/04/26 16:32:56;;;;;;;7.68;3.00;;;15.00;53.50;;;;;;5024875;28;20038;-50
2022/04/26 16:35:24;;;;;;;5.30;2.58;;;14.90;54.10;;;;;;5025347;28;20045;-52
2022/04/26 16:37:52;;;;;;;9.00;3.17;;;14.80;54.70;;;;;;5042966;28;20063;-52
2022/04/26 16:40:18;;;;;;;5.28;3.03;;;14.70;54.30;;;;;;5030158;28;20154;-51
2022/04/26 16:42:44;;;;;;;4.80;2.40;;;14.50;54.80;;;;;;5024547;28;20046;-53
2022/04/26 16:45:13;;;;;;;8.02;3.28;;;14.40;55.70;;;;;;5025878;28;20060;-49
2022/04/26 16:47:39;;;;;;;5.53;2.70;;;14.10;56.20;;;;;;4993652;28;20128;-49
2022/04/26 16:50:09;;;;;;;8.05;3.10;;;14.00;56.30;;;;;;5027226;28;20050;-50
2022/04/26 16:52:36;;;;;;;6.78;3.22;;;13.80;57.90;;;;;;5026666;28;20096;-49
2022/04/26 16:55:04;;;;;;;4.90;3.40;;;13.70;58.00;;;;;;5024463;28;20061;-52
2022/04/26 16:57:31;;;;;;;6.45;3.03;;;13.60;58.70;;;;;;5026444;28;20045;-53
2022/04/26 16:59:57;;;;;;;6.22;3.13;;;13.50;58.50;;;;;;5025450;28;20041;-50
2022/04/26 17:02:25;;;;;;;6.60;2.90;;;13.40;59.60;;;;;;5023876;28;20103;-52
2022/04/26 17:04:51;;;;;;;8.20;3.20;;;13.40;60.10;;;;;;5024207;28;20401;-53
2022/04/26 17:07:17;;;;;;;8.07;3.30;;;13.40;59.50;;;;;;5026459;28;20049;-50
2022/04/26 17:09:43;;;;;;;5.47;2.97;;;13.50;59.40;;;;;;5034692;28;20507;-52